createdAt,value
2019-05-19T00:01:27.293Z,7.40
2019-05-19T00:03:38.237Z,7.40
2019-05-19T00:05:49.105Z,7.27
2019-05-19T00:07:59.949Z,7.07
2019-05-19T00:10:10.963Z,7.63
2019-05-19T00:12:21.933Z,7.00
2019-05-19T00:14:32.877Z,7.60
2019-05-19T00:16:43.757Z,7.30
2019-05-19T00:18:54.610Z,6.70
2019-05-19T00:21:05.471Z,6.77
2019-05-19T00:23:16.298Z,6.47
2019-05-19T00:25:27.214Z,6.80
2019-05-19T00:27:38.088Z,7.10
2019-05-19T00:29:48.922Z,7.70
2019-05-19T00:31:59.833Z,7.93
2019-05-19T00:34:10.657Z,8.27
2019-05-19T00:36:21.517Z,8.23
2019-05-19T00:38:32.375Z,8.03
2019-05-19T00:40:43.232Z,7.53
2019-05-19T00:42:54.068Z,6.90
2019-05-19T00:45:06.525Z,7.40
2019-05-19T00:47:17.479Z,7.70
2019-05-19T00:49:40.565Z,7.97
2019-05-19T00:51:41.294Z,7.43
2019-05-19T00:53:52.228Z,7.50
2019-05-19T00:56:03.298Z,7.23
2019-05-19T00:58:14.248Z,7.13
2019-05-19T01:00:25.105Z,7.23
2019-05-19T01:02:35.975Z,7.03
2019-05-19T01:04:46.804Z,7.67
2019-05-19T01:06:57.750Z,7.47
2019-05-19T01:09:08.738Z,7.60
2019-05-19T01:11:19.613Z,7.13
2019-05-19T01:13:30.447Z,7.97
2019-05-19T01:15:41.313Z,8.10
2019-05-19T01:17:52.178Z,7.40
2019-05-19T01:20:04.625Z,7.57
2019-05-19T01:22:15.664Z,8.30
2019-05-19T01:24:26.523Z,8.17
2019-05-19T01:26:37.689Z,8.03
2019-05-19T01:28:48.562Z,7.93
2019-05-19T01:30:59.506Z,8.70
2019-05-19T01:33:10.373Z,9.53
2019-05-19T01:35:21.313Z,8.83
2019-05-19T01:37:32.205Z,8.97
2019-05-19T01:39:43.126Z,8.97
2019-05-19T01:41:53.970Z,8.47
2019-05-19T01:44:04.932Z,8.80
2019-05-19T01:46:15.778Z,9.40
2019-05-19T01:48:28.142Z,9.23
2019-05-19T01:50:39.081Z,9.63
2019-05-19T01:52:50.070Z,9.00
2019-05-19T01:55:01.221Z,8.80
2019-05-19T01:57:12.140Z,9.43
2019-05-19T01:59:23.001Z,9.00
2019-05-19T02:01:33.850Z,9.80
2019-05-19T02:03:44.713Z,8.90
2019-05-19T02:05:55.542Z,9.93
2019-05-19T02:08:06.412Z,10.33
2019-05-19T02:10:17.349Z,10.23
2019-05-19T02:12:28.293Z,11.43
2019-05-19T02:14:39.159Z,11.67
2019-05-19T02:16:50.083Z,12.37
2019-05-19T02:19:00.955Z,12.37
2019-05-19T02:21:11.809Z,11.23
2019-05-19T02:23:22.672Z,10.87
2019-05-19T02:25:33.744Z,10.23
2019-05-19T02:27:44.587Z,10.23
2019-05-19T02:29:55.466Z,9.97
2019-05-19T02:32:06.301Z,9.43
2019-05-19T02:34:17.266Z,11.63
2019-05-19T02:36:28.207Z,10.93
2019-05-19T02:38:39.038Z,10.90
2019-05-19T02:40:53.530Z,10.90
2019-05-19T02:43:04.887Z,9.90
2019-05-19T02:45:15.953Z,9.87
2019-05-19T02:47:26.952Z,9.87
2019-05-19T02:49:38.008Z,10.40
2019-05-19T02:51:49.844Z,10.57
2019-05-19T02:54:02.490Z,9.23
2019-05-19T02:56:13.657Z,9.50
2019-05-19T02:58:24.912Z,10.50
2019-05-19T03:00:37.699Z,10.03
2019-05-19T03:02:48.545Z,10.53
2019-05-19T03:04:59.413Z,9.07
2019-05-19T03:07:10.377Z,10.73
2019-05-19T03:09:21.234Z,11.03
2019-05-19T03:11:32.095Z,10.77
2019-05-19T03:13:43.054Z,11.73
2019-05-19T03:15:53.914Z,11.50
2019-05-19T03:18:04.977Z,12.07
2019-05-19T03:20:15.935Z,11.40
2019-05-19T03:22:26.775Z,11.03
2019-05-19T03:24:37.610Z,11.67
2019-05-19T03:26:48.770Z,11.83
2019-05-19T03:28:59.654Z,11.70
2019-05-19T03:31:12.398Z,11.20
2019-05-19T03:33:25.157Z,11.43
2019-05-19T03:35:36.037Z,11.40
2019-05-19T03:37:46.864Z,12.17
2019-05-19T03:39:57.870Z,12.07
2019-05-19T03:42:10.483Z,11.30
2019-05-19T03:44:21.507Z,10.30
2019-05-19T03:46:32.352Z,9.97
2019-05-19T03:48:43.219Z,10.03
2019-05-19T03:50:54.057Z,11.07
2019-05-19T03:53:04.915Z,11.37
2019-05-19T03:55:15.858Z,10.03
2019-05-19T03:57:26.715Z,11.77
2019-05-19T03:59:37.551Z,11.50
2019-05-19T04:01:48.419Z,11.40
2019-05-19T04:03:59.270Z,11.50
2019-05-19T04:06:10.229Z,11.97
2019-05-19T04:08:21.097Z,12.67
2019-05-19T04:10:31.963Z,10.57
2019-05-19T04:12:42.832Z,11.30
2019-05-19T04:14:53.674Z,10.50
2019-05-19T04:17:04.531Z,9.97
2019-05-19T04:19:15.413Z,12.73
2019-05-19T04:21:26.257Z,12.17
2019-05-19T04:23:37.122Z,13.13
2019-05-19T04:25:48.065Z,13.30
2019-05-19T04:27:58.934Z,14.40
2019-05-19T04:30:10.006Z,13.50
2019-05-19T04:32:20.844Z,14.47
2019-05-19T04:34:31.723Z,14.10
2019-05-19T04:36:42.564Z,14.33
2019-05-19T04:38:53.411Z,12.73
2019-05-19T04:41:04.346Z,12.93
2019-05-19T04:43:15.205Z,11.17
2019-05-19T04:45:26.077Z,11.70
2019-05-19T04:47:37.045Z,11.43
2019-05-19T04:49:48.030Z,11.63
2019-05-19T04:52:06.514Z,11.30
2019-05-19T04:54:11.650Z,11.73
2019-05-19T04:56:22.495Z,12.13
2019-05-19T04:58:33.346Z,11.23
2019-05-19T05:00:44.249Z,12.20
2019-05-19T05:02:55.099Z,11.37
2019-05-19T05:05:06.073Z,11.33
2019-05-19T05:07:17.020Z,10.57
2019-05-19T05:09:27.868Z,10.23
2019-05-19T05:11:38.757Z,10.37
2019-05-19T05:13:49.605Z,11.40
2019-05-19T05:16:00.487Z,10.60
2019-05-19T05:18:11.449Z,12.53
2019-05-19T05:20:22.811Z,11.40
2019-05-19T05:22:33.745Z,11.83
2019-05-19T05:24:44.602Z,12.27
2019-05-19T05:26:55.446Z,12.83
2019-05-19T05:29:09.096Z,13.07
2019-05-19T05:31:19.965Z,12.67
2019-05-19T05:33:30.812Z,13.57
2019-05-19T05:35:41.701Z,13.90
2019-05-19T05:37:52.566Z,12.87
2019-05-19T05:40:05.746Z,13.17
2019-05-19T05:42:16.802Z,12.67
2019-05-19T05:44:27.650Z,7.83
2019-05-19T05:46:38.521Z,9.43
2019-05-19T05:48:49.356Z,9.57
2019-05-19T05:51:00.216Z,11.30
2019-05-19T05:53:11.081Z,11.80
2019-05-19T05:55:21.943Z,12.40
2019-05-19T05:57:32.814Z,11.43
2019-05-19T05:59:43.658Z,13.37
2019-05-19T06:01:54.533Z,11.97
2019-05-19T06:04:05.470Z,14.23
2019-05-19T06:06:16.458Z,12.73
2019-05-19T06:08:27.426Z,13.10
2019-05-19T06:10:38.291Z,13.10
2019-05-19T06:12:49.152Z,13.77
2019-05-19T06:15:00.108Z,13.77
2019-05-19T06:17:11.065Z,13.70
2019-05-19T06:19:21.932Z,14.00
2019-05-19T06:21:32.772Z,12.37
2019-05-19T06:23:43.643Z,14.50
2019-05-19T06:25:54.546Z,14.77
2019-05-19T06:28:05.389Z,14.80
2019-05-19T06:30:18.361Z,14.87
2019-05-19T06:32:33.890Z,13.60
2019-05-19T06:34:44.734Z,14.17
2019-05-19T06:36:55.610Z,14.57
2019-05-19T06:39:06.684Z,14.30
2019-05-19T06:41:17.749Z,14.50
2019-05-19T06:43:30.505Z,13.90
2019-05-19T06:45:41.360Z,13.00
2019-05-19T06:47:52.232Z,14.97
2019-05-19T06:50:04.957Z,14.43
2019-05-19T06:52:15.819Z,13.83
2019-05-19T06:54:26.655Z,13.17
2019-05-19T06:56:37.606Z,13.40
2019-05-19T06:58:48.472Z,13.40
2019-05-19T07:00:59.422Z,13.87
2019-05-19T07:03:10.433Z,12.33
2019-05-19T07:05:21.398Z,12.13
2019-05-19T07:07:32.269Z,11.80
2019-05-19T07:09:57.503Z,11.87
2019-05-19T07:11:55.864Z,10.87
2019-05-19T07:14:07.506Z,12.68
2019-05-19T07:16:18.347Z,14.13
2019-05-19T07:18:29.203Z,13.63
2019-05-19T07:20:40.054Z,12.83
2019-05-19T07:22:50.913Z,14.00
2019-05-19T07:25:02.760Z,13.67
2019-05-19T07:27:13.684Z,12.17
2019-05-19T07:29:24.571Z,10.80
2019-05-19T07:31:35.417Z,11.47
2019-05-19T07:33:46.276Z,11.17
2019-05-19T07:35:57.095Z,12.23
2019-05-19T07:38:07.949Z,11.40
2019-05-19T07:40:18.912Z,10.97
2019-05-19T07:42:29.790Z,11.73
2019-05-19T07:44:40.671Z,12.17
2019-05-19T07:46:51.524Z,11.63
2019-05-19T07:49:02.410Z,11.50
2019-05-19T07:51:13.365Z,11.93
2019-05-19T07:53:24.208Z,11.30
2019-05-19T07:55:35.196Z,11.30
2019-05-19T07:57:46.048Z,12.47
2019-05-19T07:59:56.901Z,11.77
2019-05-19T08:02:07.763Z,12.10
2019-05-19T08:04:18.625Z,12.33
2019-05-19T08:06:29.489Z,13.50
2019-05-19T08:08:40.337Z,11.27
2019-05-19T08:10:51.225Z,11.90
2019-05-19T08:13:02.156Z,12.50
2019-05-19T08:15:13.237Z,11.50
2019-05-19T08:17:25.992Z,10.60
2019-05-19T08:19:36.978Z,11.57
2019-05-19T08:21:47.923Z,12.40
2019-05-19T08:24:00.854Z,12.73
2019-05-19T08:26:11.695Z,12.63
2019-05-19T08:28:22.542Z,12.00
2019-05-19T08:30:33.601Z,12.40
2019-05-19T08:32:44.557Z,11.77
2019-05-19T08:34:55.510Z,12.97
2019-05-19T08:37:06.395Z,12.80
2019-05-19T08:39:17.234Z,13.93
2019-05-19T08:41:28.086Z,14.10
2019-05-19T08:43:38.931Z,14.17
2019-05-19T08:45:49.826Z,14.70
2019-05-19T08:48:00.769Z,13.73
2019-05-19T08:50:11.930Z,14.67
2019-05-19T08:52:22.802Z,14.70
2019-05-19T08:54:33.711Z,13.80
2019-05-19T08:56:44.572Z,14.07
2019-05-19T08:58:55.514Z,14.97
2019-05-19T09:01:06.359Z,13.23
2019-05-19T09:03:17.226Z,13.33
2019-05-19T09:05:28.089Z,12.53
2019-05-19T09:07:38.959Z,12.03
2019-05-19T09:09:49.790Z,12.47
2019-05-19T09:12:00.715Z,12.67
2019-05-19T09:14:11.753Z,13.87
2019-05-19T09:16:22.730Z,12.87
2019-05-19T09:18:33.591Z,14.43
2019-05-19T09:20:44.445Z,13.73
2019-05-19T09:22:55.420Z,12.17
2019-05-19T09:25:08.323Z,13.53
2019-05-19T09:27:19.175Z,13.20
2019-05-19T09:29:30.157Z,14.17
2019-05-19T09:31:41.549Z,12.70
2019-05-19T09:33:52.611Z,14.07
2019-05-19T09:36:03.480Z,12.43
2019-05-19T09:38:14.494Z,13.07
2019-05-19T09:40:26.775Z,12.83
2019-05-19T09:42:37.821Z,12.77
2019-05-19T09:44:48.701Z,12.10
2019-05-19T09:46:59.560Z,13.23
2019-05-19T09:49:29.216Z,11.13
2019-05-19T09:51:40.060Z,10.40
2019-05-19T09:53:50.925Z,11.30
2019-05-19T09:56:01.781Z,13.27
2019-05-19T09:58:15.804Z,12.93
2019-05-19T10:00:25.927Z,11.50
2019-05-19T10:02:36.780Z,11.07
2019-05-19T10:04:47.741Z,11.97
2019-05-19T10:06:58.719Z,12.87
2019-05-19T10:09:10.400Z,12.80
2019-05-19T10:11:28.691Z,12.53
2019-05-19T10:13:39.553Z,12.90
2019-05-19T10:15:50.545Z,11.57
2019-05-19T10:18:01.376Z,10.80
2019-05-19T10:20:12.991Z,11.07
2019-05-19T10:22:24.031Z,11.10
2019-05-19T10:24:35.015Z,10.30
2019-05-19T10:26:46.058Z,10.57
2019-05-19T10:28:56.927Z,9.10
2019-05-19T10:31:07.840Z,7.80
2019-05-19T10:33:18.691Z,7.90
2019-05-19T10:35:29.586Z,7.40
2019-05-19T10:37:40.473Z,6.83
2019-05-19T10:39:51.927Z,6.80
2019-05-19T10:42:03.101Z,6.97
2019-05-19T10:44:14.094Z,7.00
2019-05-19T10:46:24.957Z,6.87
2019-05-19T10:48:35.918Z,8.20
2019-05-19T10:50:46.789Z,6.90
2019-05-19T10:52:57.622Z,6.70
2019-05-19T10:55:08.696Z,6.67
2019-05-19T10:57:19.675Z,6.07
2019-05-19T10:59:30.623Z,6.60
2019-05-19T11:01:41.602Z,7.33
2019-05-19T11:03:52.456Z,5.57
2019-05-19T11:06:03.471Z,5.37
2019-05-19T11:08:14.313Z,4.43
2019-05-19T11:10:25.277Z,5.67
2019-05-19T11:12:36.213Z,5.67
2019-05-19T11:14:47.068Z,6.40
2019-05-19T11:16:57.950Z,5.07
2019-05-19T11:19:08.794Z,5.47
2019-05-19T11:21:19.805Z,5.00
2019-05-19T11:23:30.648Z,5.30
2019-05-19T11:25:51.156Z,5.97
2019-05-19T11:27:54.315Z,5.73
2019-05-19T11:30:05.796Z,6.40
2019-05-19T11:32:16.687Z,6.73
2019-05-19T11:34:27.548Z,5.77
2019-05-19T11:36:38.425Z,8.97
2019-05-19T11:38:49.279Z,5.47
2019-05-19T11:41:00.120Z,5.73
2019-05-19T11:43:11.214Z,6.00
2019-05-19T11:45:22.222Z,6.03
2019-05-19T11:47:33.111Z,5.37
2019-05-19T11:49:44.058Z,5.80
2019-05-19T11:51:54.910Z,6.17
2019-05-19T11:54:05.910Z,6.63
2019-05-19T11:56:16.873Z,6.10
2019-05-19T11:58:27.746Z,6.60
2019-05-19T12:00:38.710Z,7.03
2019-05-19T12:02:49.743Z,7.70
2019-05-19T12:05:00.577Z,16.53
2019-05-19T12:07:11.439Z,8.87
2019-05-19T12:09:22.308Z,6.37
2019-05-19T12:11:33.164Z,6.33
2019-05-19T12:13:44.031Z,6.40
2019-05-19T12:15:54.882Z,6.23
2019-05-19T12:18:05.883Z,6.40
2019-05-19T12:20:16.961Z,6.90
2019-05-19T12:22:27.956Z,7.20
2019-05-19T12:24:39.012Z,6.57
2019-05-19T12:26:50.013Z,7.10
2019-05-19T12:29:00.875Z,5.87
2019-05-19T12:31:11.734Z,4.47
2019-05-19T12:33:22.613Z,5.30
2019-05-19T12:35:33.550Z,5.10
2019-05-19T12:37:44.438Z,5.10
2019-05-19T12:39:55.520Z,5.83
2019-05-19T12:42:06.372Z,6.63
2019-05-19T12:44:17.357Z,6.37
2019-05-19T12:46:28.338Z,6.17
2019-05-19T12:48:39.313Z,5.97
2019-05-19T12:50:50.179Z,5.27
2019-05-19T12:53:01.155Z,6.40
2019-05-19T12:55:12.325Z,6.50
2019-05-19T12:57:23.181Z,5.27
2019-05-19T12:59:34.068Z,6.20
2019-05-19T13:01:44.922Z,6.50
2019-05-19T13:03:55.782Z,5.67
2019-05-19T13:06:06.776Z,5.87
2019-05-19T13:08:17.851Z,5.00
2019-05-19T13:10:28.762Z,5.63
2019-05-19T13:12:39.630Z,5.43
2019-05-19T13:14:50.510Z,5.60
2019-05-19T13:17:01.379Z,5.87
2019-05-19T13:19:12.210Z,5.93
2019-05-19T13:21:23.107Z,5.80
2019-05-19T13:23:33.963Z,4.77
2019-05-19T13:25:44.847Z,4.83
2019-05-19T13:27:55.689Z,5.23
2019-05-19T13:30:06.899Z,5.03
2019-05-19T13:32:17.791Z,5.20
2019-05-19T13:34:28.669Z,4.67
2019-05-19T13:36:40.421Z,5.33
2019-05-19T13:38:51.624Z,5.30
2019-05-19T13:41:02.941Z,4.83
2019-05-19T13:43:13.869Z,4.57
2019-05-19T13:45:24.753Z,4.57
2019-05-19T13:47:35.724Z,4.87
2019-05-19T13:49:46.579Z,4.87
2019-05-19T13:51:57.463Z,4.43
2019-05-19T13:54:08.418Z,4.13
2019-05-19T13:56:19.314Z,4.70
2019-05-19T13:58:30.257Z,4.97
2019-05-19T14:00:41.117Z,4.63
2019-05-19T14:02:52.085Z,4.83
2019-05-19T14:05:03.737Z,4.50
2019-05-19T14:07:14.645Z,4.43
2019-05-19T14:09:25.499Z,5.17
2019-05-19T14:11:36.338Z,4.63
2019-05-19T14:13:47.257Z,3.77
2019-05-19T14:15:58.192Z,3.80
2019-05-19T14:18:09.068Z,4.43
2019-05-19T14:20:19.941Z,4.40
2019-05-19T14:22:30.850Z,4.60
2019-05-19T14:24:41.802Z,3.87
2019-05-19T14:26:52.686Z,3.90
2019-05-19T14:29:03.657Z,3.70
2019-05-19T14:31:14.512Z,3.93
2019-05-19T14:33:25.564Z,3.70
2019-05-19T14:35:38.593Z,3.83
2019-05-19T14:37:51.418Z,4.07
2019-05-19T14:40:03.552Z,4.00
2019-05-19T14:42:18.211Z,4.47
2019-05-19T14:44:29.066Z,4.33
2019-05-19T14:46:39.943Z,3.70
2019-05-19T14:48:50.813Z,4.00
2019-05-19T14:51:01.672Z,3.60
2019-05-19T14:53:12.561Z,3.97
2019-05-19T14:55:23.521Z,3.50
2019-05-19T14:57:44.402Z,3.70
2019-05-19T14:59:47.384Z,3.90
2019-05-19T15:01:58.236Z,4.37
2019-05-19T15:04:09.110Z,4.07
2019-05-19T15:06:19.979Z,3.50
2019-05-19T15:08:30.866Z,3.90
2019-05-19T15:10:41.948Z,3.70
2019-05-19T15:12:52.896Z,4.03
2019-05-19T15:15:07.326Z,3.87
2019-05-19T15:17:18.155Z,3.70
2019-05-19T15:19:29.032Z,3.67
2019-05-19T15:21:39.984Z,3.50
2019-05-19T15:23:51.016Z,3.80
2019-05-19T15:26:01.985Z,3.60
2019-05-19T15:28:12.954Z,3.73
2019-05-19T15:30:24.004Z,4.07
2019-05-19T15:32:34.910Z,3.50
2019-05-19T15:34:45.775Z,4.43
2019-05-19T15:36:56.739Z,4.93
2019-05-19T15:39:07.623Z,5.53
2019-05-19T15:41:18.594Z,5.17
2019-05-19T15:43:29.437Z,5.77
2019-05-19T15:45:40.505Z,4.93
2019-05-19T15:47:51.517Z,6.50
2019-05-19T15:50:04.841Z,5.27
2019-05-19T15:52:17.914Z,6.00
2019-05-19T15:54:28.908Z,6.43
2019-05-19T15:56:39.845Z,5.63
2019-05-19T15:58:50.709Z,6.47
2019-05-19T16:01:01.584Z,5.50
2019-05-19T16:03:12.437Z,5.90
2019-05-19T16:05:23.318Z,6.33
2019-05-19T16:07:34.188Z,7.23
2019-05-19T16:09:45.054Z,6.03
2019-05-19T16:11:55.961Z,6.63
2019-05-19T16:14:07.050Z,6.30
2019-05-19T16:16:18.030Z,6.63
2019-05-19T16:18:28.905Z,6.40
2019-05-19T16:20:39.865Z,7.23
2019-05-19T16:22:51.015Z,6.83
2019-05-19T16:25:04.187Z,7.30
2019-05-19T16:27:15.085Z,7.30
2019-05-19T16:29:26.049Z,7.87
2019-05-19T16:31:37.026Z,8.70
2019-05-19T16:33:48.139Z,7.97
2019-05-19T16:35:59.162Z,7.63
2019-05-19T16:38:10.126Z,7.87
2019-05-19T16:40:21.179Z,8.17
2019-05-19T16:42:32.138Z,9.70
2019-05-19T16:44:43.125Z,8.87
2019-05-19T16:46:54.128Z,8.20
2019-05-19T16:49:05.184Z,8.87
2019-05-19T16:51:16.144Z,8.17
2019-05-19T16:53:27.053Z,8.60
2019-05-19T16:55:38.081Z,8.47
2019-05-19T16:57:49.110Z,8.10
2019-05-19T16:59:59.986Z,7.60
2019-05-19T17:02:11.102Z,7.63
2019-05-19T17:04:21.974Z,7.13
2019-05-19T17:06:32.845Z,7.50
2019-05-19T17:08:43.751Z,6.50
2019-05-19T17:10:54.628Z,6.57
2019-05-19T17:13:05.539Z,5.73
2019-05-19T17:15:17.700Z,7.27
2019-05-19T17:17:28.735Z,8.57
2019-05-19T17:19:39.797Z,8.13
2019-05-19T17:21:52.662Z,8.57
2019-05-19T17:24:03.695Z,8.00
2019-05-19T17:26:14.529Z,7.63
2019-05-19T17:28:25.509Z,7.23
2019-05-19T17:30:36.554Z,7.60
2019-05-19T17:32:47.615Z,7.57
2019-05-19T17:34:58.562Z,7.77
2019-05-19T17:37:09.486Z,7.63
2019-05-19T17:39:20.456Z,8.50
2019-05-19T17:41:31.320Z,8.43
2019-05-19T17:43:42.307Z,7.97
2019-05-19T17:45:53.388Z,8.10
2019-05-19T17:48:10.021Z,8.33
2019-05-19T17:50:21.222Z,8.17
2019-05-19T17:52:32.067Z,9.20
2019-05-19T17:54:43.101Z,8.77
2019-05-19T17:56:55.172Z,8.63
2019-05-19T17:59:16.090Z,8.73
2019-05-19T18:01:18.997Z,8.97
2019-05-19T18:03:30.300Z,8.87
2019-05-19T18:05:41.209Z,8.47
2019-05-19T18:07:52.066Z,7.90
2019-05-19T18:10:04.507Z,8.27
2019-05-19T18:12:15.373Z,8.50
2019-05-19T18:14:26.530Z,8.97
2019-05-19T18:16:37.828Z,9.00
2019-05-19T18:18:48.731Z,8.40
2019-05-19T18:20:59.797Z,8.00
2019-05-19T18:23:10.657Z,8.20
2019-05-19T18:25:21.741Z,7.90
2019-05-19T18:27:32.772Z,7.97
2019-05-19T18:29:44.539Z,8.37
2019-05-19T18:31:55.411Z,8.17
2019-05-19T18:34:06.387Z,8.50
2019-05-19T18:36:17.466Z,8.30
2019-05-19T18:38:30.249Z,7.80
2019-05-19T18:40:41.228Z,8.03
2019-05-19T18:42:52.210Z,8.40
2019-05-19T18:45:04.553Z,8.37
2019-05-19T18:47:15.496Z,9.20
2019-05-19T18:49:26.331Z,8.47
2019-05-19T18:51:37.216Z,8.40
2019-05-19T18:53:48.064Z,8.03
2019-05-19T18:56:00.841Z,8.30
2019-05-19T18:58:11.686Z,8.80
2019-05-19T19:00:34.390Z,7.80
2019-05-19T19:02:47.884Z,6.63
2019-05-19T19:04:58.150Z,8.70
2019-05-19T19:07:09.146Z,7.57
2019-05-19T19:09:20.145Z,7.73
2019-05-19T19:11:31.114Z,8.60
2019-05-19T19:13:42.188Z,7.63
2019-05-19T19:15:53.260Z,7.50
2019-05-19T19:18:04.413Z,8.77
2019-05-19T19:20:17.309Z,9.13
2019-05-19T19:22:28.192Z,9.33
2019-05-19T19:24:39.120Z,9.10
2019-05-19T19:26:49.977Z,8.33
2019-05-19T19:29:02.857Z,7.70
2019-05-19T19:31:13.856Z,8.37
2019-05-19T19:33:24.846Z,8.60
2019-05-19T19:35:39.197Z,8.37
2019-05-19T19:37:48.518Z,8.40
2019-05-19T19:39:59.539Z,8.03
2019-05-19T19:42:10.638Z,8.37
2019-05-19T19:44:21.638Z,8.23
2019-05-19T19:46:32.601Z,7.90
2019-05-19T19:48:43.489Z,7.77
2019-05-19T19:50:54.421Z,8.47
2019-05-19T19:53:05.430Z,9.37
2019-05-19T19:55:16.401Z,8.30
2019-05-19T19:57:29.294Z,8.33
2019-05-19T19:59:40.155Z,8.53
2019-05-19T20:01:51.066Z,8.00
2019-05-19T20:04:02.043Z,9.43
2019-05-19T20:06:13.170Z,9.97
2019-05-19T20:08:24.036Z,9.80
2019-05-19T20:10:35.696Z,9.67
2019-05-19T20:12:46.571Z,8.93
2019-05-19T20:14:57.472Z,8.77
2019-05-19T20:17:08.334Z,9.60
2019-05-19T20:19:19.244Z,10.63
2019-05-19T20:21:30.290Z,9.70
2019-05-19T20:23:41.182Z,9.23
2019-05-19T20:25:52.137Z,9.80
2019-05-19T20:28:02.992Z,10.50
2019-05-19T20:30:13.985Z,9.50
2019-05-19T20:32:24.963Z,10.63
2019-05-19T20:34:35.829Z,8.63
2019-05-19T20:36:48.668Z,7.87
2019-05-19T20:38:59.544Z,8.60
2019-05-19T20:41:10.411Z,8.97
2019-05-19T20:43:21.275Z,9.50
2019-05-19T20:45:32.473Z,9.93
2019-05-19T20:47:43.538Z,10.33
2019-05-19T20:49:54.559Z,9.63
2019-05-19T20:52:05.528Z,8.47
2019-05-19T20:54:16.402Z,9.43
2019-05-19T20:56:27.246Z,9.33
2019-05-19T20:58:38.081Z,8.57
2019-05-19T21:00:51.344Z,8.23
2019-05-19T21:03:01.835Z,7.50
2019-05-19T21:05:12.798Z,6.90
2019-05-19T21:07:23.733Z,7.10
2019-05-19T21:09:34.765Z,6.80
2019-05-19T21:11:45.598Z,6.67
2019-05-19T21:13:56.464Z,7.60
2019-05-19T21:16:07.318Z,7.17
2019-05-19T21:18:18.275Z,5.30
2019-05-19T21:20:29.176Z,4.60
2019-05-19T21:22:40.049Z,5.20
2019-05-19T21:24:50.905Z,3.50
2019-05-19T21:27:01.743Z,4.50
2019-05-19T21:29:12.596Z,5.37
2019-05-19T21:31:23.499Z,4.70
2019-05-19T21:33:34.488Z,5.03
2019-05-19T21:35:47.257Z,6.03
2019-05-19T21:37:58.105Z,5.13
2019-05-19T21:40:09.467Z,5.23
2019-05-19T21:42:20.454Z,4.00
2019-05-19T21:44:31.394Z,4.23
2019-05-19T21:46:44.365Z,4.00
2019-05-19T21:48:55.207Z,4.50
2019-05-19T21:51:06.203Z,4.17
2019-05-19T21:53:17.044Z,3.73
2019-05-19T21:55:28.005Z,3.43
2019-05-19T21:57:38.856Z,3.73
2019-05-19T21:59:49.725Z,3.53
2019-05-19T22:02:00.583Z,3.13
2019-05-19T22:04:11.439Z,3.60
2019-05-19T22:06:24.307Z,3.77
2019-05-19T22:08:35.398Z,3.43
2019-05-19T22:10:46.344Z,3.63
2019-05-19T22:12:57.206Z,3.80
2019-05-19T22:15:10.363Z,4.23
2019-05-19T22:17:21.244Z,3.57
2019-05-19T22:19:32.146Z,3.47
2019-05-19T22:21:43.109Z,3.83
2019-05-19T22:23:53.980Z,3.33
2019-05-19T22:26:04.909Z,3.33
2019-05-19T22:28:15.793Z,4.03
2019-05-19T22:30:26.870Z,3.87
2019-05-19T22:32:37.789Z,3.97
2019-05-19T22:34:48.683Z,3.50
2019-05-19T22:36:59.474Z,4.00
2019-05-19T22:39:10.333Z,3.83
2019-05-19T22:41:21.170Z,3.97
2019-05-19T22:43:32.037Z,3.40
2019-05-19T22:45:42.872Z,3.70
2019-05-19T22:47:53.748Z,3.30
2019-05-19T22:50:06.209Z,3.00
2019-05-19T22:52:17.066Z,2.73
2019-05-19T22:54:27.948Z,2.63
2019-05-19T22:56:38.794Z,2.90
2019-05-19T22:58:49.685Z,2.60
2019-05-19T23:01:00.650Z,2.90
2019-05-19T23:03:11.526Z,2.60
2019-05-19T23:05:22.415Z,2.53
2019-05-19T23:07:33.379Z,2.80
2019-05-19T23:09:44.350Z,2.97
2019-05-19T23:11:55.204Z,3.10
2019-05-19T23:14:06.174Z,3.03
2019-05-19T23:16:16.999Z,2.87
2019-05-19T23:18:27.869Z,3.07
2019-05-19T23:20:39.091Z,3.23
2019-05-19T23:22:50.106Z,3.27
2019-05-19T23:25:04.831Z,3.70
2019-05-19T23:27:15.656Z,3.87
2019-05-19T23:29:26.618Z,3.63
2019-05-19T23:31:37.499Z,3.50
2019-05-19T23:33:48.471Z,3.50
2019-05-19T23:35:59.338Z,3.67
2019-05-19T23:38:10.181Z,3.77
2019-05-19T23:40:21.030Z,3.30
2019-05-19T23:42:32.018Z,3.77
2019-05-19T23:44:42.899Z,4.53
2019-05-19T23:46:53.722Z,3.93
2019-05-19T23:49:04.595Z,3.80
2019-05-19T23:51:15.426Z,4.33
2019-05-19T23:53:26.269Z,3.80
2019-05-19T23:55:37.138Z,3.73
2019-05-19T23:57:47.986Z,4.30
2019-05-19T23:59:58.836Z,4.10
